createdAt,value
2022-07-26T00:00:19.087Z,22.54
2022-07-26T00:01:19.148Z,22.44
2022-07-26T00:02:19.161Z,22.45
2022-07-26T00:03:19.078Z,22.47
2022-07-26T00:04:19.058Z,22.43
2022-07-26T00:05:19.062Z,22.45
2022-07-26T00:06:19.251Z,22.48
2022-07-26T00:07:19.201Z,22.45
2022-07-26T00:08:19.017Z,22.44
2022-07-26T00:09:18.995Z,22.50
2022-07-26T00:10:18.994Z,22.51
2022-07-26T00:11:19.325Z,22.44
2022-07-26T00:12:18.962Z,22.45
2022-07-26T00:13:18.967Z,22.39
2022-07-26T00:14:18.936Z,22.32
2022-07-26T00:15:18.926Z,22.11
2022-07-26T00:16:18.970Z,22.28
2022-07-26T00:17:18.945Z,22.11
2022-07-26T00:18:18.893Z,22.28
2022-07-26T00:19:18.882Z,22.23
2022-07-26T00:20:18.872Z,22.23
2022-07-26T00:21:18.872Z,22.30
2022-07-26T00:22:18.954Z,22.28
2022-07-26T00:23:18.857Z,22.36
2022-07-26T00:24:18.825Z,22.44
2022-07-26T00:25:18.823Z,22.36
2022-07-26T00:26:18.904Z,22.35
2022-07-26T00:27:18.798Z,22.32
2022-07-26T00:28:18.869Z,22.26
2022-07-26T00:29:18.774Z,22.18
2022-07-26T00:30:18.768Z,22.25
2022-07-26T00:31:18.858Z,22.35
2022-07-26T00:32:18.741Z,22.22
2022-07-26T00:33:18.742Z,22.30
2022-07-26T00:34:18.723Z,22.28
2022-07-26T00:35:18.710Z,22.30
2022-07-26T00:36:18.705Z,22.22
2022-07-26T00:37:20.608Z,22.26
2022-07-26T00:38:18.694Z,22.22
2022-07-26T00:39:18.678Z,22.25
2022-07-26T00:40:18.685Z,22.30
2022-07-26T00:41:19.511Z,22.18
2022-07-26T00:42:18.629Z,22.15
2022-07-26T00:43:18.638Z,22.15
2022-07-26T00:44:18.604Z,22.17
2022-07-26T00:45:18.648Z,22.13
2022-07-26T00:46:18.658Z,22.13
2022-07-26T00:47:18.576Z,22.26
2022-07-26T00:48:18.571Z,22.25
2022-07-26T00:49:18.665Z,22.26
2022-07-26T00:50:18.539Z,22.28
2022-07-26T00:51:18.528Z,22.18
2022-07-26T00:52:18.515Z,22.32
2022-07-26T00:53:18.535Z,22.29
2022-07-26T00:54:18.498Z,22.15
2022-07-26T00:55:18.480Z,22.20
2022-07-26T00:56:18.474Z,22.26
2022-07-26T00:57:18.461Z,22.25
2022-07-26T00:58:18.857Z,22.28
2022-07-26T00:59:18.437Z,22.25
2022-07-26T01:00:18.434Z,22.18
2022-07-26T01:01:18.477Z,22.23
2022-07-26T01:02:18.750Z,22.00
2022-07-26T01:03:18.422Z,22.22
2022-07-26T01:04:18.383Z,22.04
2022-07-26T01:05:18.372Z,22.11
2022-07-26T01:06:18.360Z,22.14
2022-07-26T01:07:18.350Z,22.13
2022-07-26T01:08:18.358Z,22.08
2022-07-26T01:09:18.342Z,22.04
2022-07-26T01:10:18.312Z,22.08
2022-07-26T01:11:18.303Z,22.04
2022-07-26T01:12:18.303Z,21.98
2022-07-26T01:13:18.294Z,21.95
2022-07-26T01:14:18.270Z,22.00
2022-07-26T01:15:18.258Z,21.98
2022-07-26T01:16:18.337Z,21.98
2022-07-26T01:17:18.989Z,21.98
2022-07-26T01:18:18.244Z,21.98
2022-07-26T01:19:18.228Z,22.04
2022-07-26T01:20:18.209Z,22.00
2022-07-26T01:21:18.190Z,22.13
2022-07-26T01:22:18.180Z,22.10
2022-07-26T01:23:18.169Z,22.10
2022-07-26T01:24:18.170Z,22.06
2022-07-26T01:25:18.146Z,22.10
2022-07-26T01:26:18.134Z,22.08
2022-07-26T01:27:18.120Z,22.06
2022-07-26T01:28:20.106Z,21.99
2022-07-26T01:29:18.101Z,22.10
2022-07-26T01:30:18.092Z,22.10
2022-07-26T01:31:18.124Z,22.10
2022-07-26T01:32:18.321Z,22.11
2022-07-26T01:33:18.060Z,22.11
2022-07-26T01:34:18.045Z,22.08
2022-07-26T01:35:18.033Z,22.13
2022-07-26T01:36:18.034Z,22.13
2022-07-26T01:37:18.009Z,22.15
2022-07-26T01:38:17.994Z,22.10
2022-07-26T01:39:18.018Z,22.13
2022-07-26T01:40:17.976Z,22.14
2022-07-26T01:41:17.984Z,22.14
2022-07-26T01:42:18.952Z,22.15
2022-07-26T01:43:17.944Z,22.25
2022-07-26T01:44:17.934Z,22.18
2022-07-26T01:45:18.183Z,22.18
2022-07-26T01:46:17.987Z,22.08
2022-07-26T01:47:17.901Z,22.06
2022-07-26T01:48:17.889Z,22.22
2022-07-26T01:49:18.611Z,22.17
2022-07-26T01:50:17.875Z,22.30
2022-07-26T01:51:17.866Z,22.20
2022-07-26T01:52:17.842Z,22.20
2022-07-26T01:53:17.842Z,22.22
2022-07-26T01:54:22.562Z,22.23
2022-07-26T01:55:18.823Z,22.17
2022-07-26T01:56:17.795Z,22.23
2022-07-26T01:57:17.781Z,22.23
2022-07-26T01:58:17.773Z,22.28
2022-07-26T01:59:18.608Z,22.26
2022-07-26T02:00:27.120Z,22.15
2022-07-26T02:01:38.037Z,22.22
2022-07-26T02:02:18.912Z,22.14
2022-07-26T02:03:17.783Z,22.23
2022-07-26T02:04:17.705Z,22.22
2022-07-26T02:05:17.727Z,22.13
2022-07-26T02:06:17.687Z,22.17
2022-07-26T02:07:17.694Z,22.20
2022-07-26T02:08:17.973Z,22.17
2022-07-26T02:09:17.673Z,22.07
2022-07-26T02:10:17.662Z,22.10
2022-07-26T02:11:17.669Z,22.11
2022-07-26T02:12:17.629Z,22.13
2022-07-26T02:13:17.612Z,22.11
2022-07-26T02:14:25.634Z,22.13
2022-07-26T02:15:18.607Z,22.07
2022-07-26T02:16:17.703Z,22.04
2022-07-26T02:17:17.570Z,22.17
2022-07-26T02:18:17.558Z,22.18
2022-07-26T02:19:17.729Z,22.11
2022-07-26T02:20:17.550Z,22.08
2022-07-26T02:21:17.526Z,22.07
2022-07-26T02:22:17.510Z,22.02
2022-07-26T02:23:17.654Z,21.96
2022-07-26T02:24:17.490Z,21.92
2022-07-26T02:25:18.534Z,21.93
2022-07-26T02:26:17.469Z,21.80
2022-07-26T02:27:17.495Z,21.80
2022-07-26T02:28:17.449Z,21.88
2022-07-26T02:29:17.439Z,21.76
2022-07-26T02:30:17.424Z,21.75
2022-07-26T02:31:17.509Z,21.75
2022-07-26T02:32:17.399Z,21.70
2022-07-26T02:33:17.393Z,21.67
2022-07-26T02:34:17.382Z,21.72
2022-07-26T02:35:17.373Z,21.66
2022-07-26T02:36:17.381Z,21.55
2022-07-26T02:37:17.345Z,21.58
2022-07-26T02:38:17.335Z,21.54
2022-07-26T02:39:17.347Z,21.48
2022-07-26T02:40:19.507Z,21.50
2022-07-26T02:41:17.324Z,21.48
2022-07-26T02:42:17.297Z,21.46
2022-07-26T02:43:17.283Z,21.45
2022-07-26T02:44:17.272Z,21.39
2022-07-26T02:45:17.349Z,21.32
2022-07-26T02:46:17.279Z,21.35
2022-07-26T02:47:17.250Z,21.30
2022-07-26T02:48:17.226Z,21.30
2022-07-26T02:49:17.251Z,21.33
2022-07-26T02:50:17.210Z,21.30
2022-07-26T02:51:17.607Z,21.35
2022-07-26T02:52:17.186Z,21.33
2022-07-26T02:53:17.175Z,21.30
2022-07-26T02:54:17.172Z,21.27
2022-07-26T02:55:17.156Z,21.30
2022-07-26T02:56:17.156Z,21.24
2022-07-26T02:57:18.086Z,21.30
2022-07-26T02:58:17.115Z,21.17
2022-07-26T02:59:17.104Z,21.24
2022-07-26T03:00:17.097Z,21.21
2022-07-26T03:01:17.169Z,21.20
2022-07-26T03:02:17.109Z,21.17
2022-07-26T03:03:17.063Z,21.25
2022-07-26T03:04:17.049Z,21.21
2022-07-26T03:05:17.042Z,21.22
2022-07-26T03:06:17.046Z,21.25
2022-07-26T03:07:17.021Z,21.18
2022-07-26T03:08:17.154Z,21.11
2022-07-26T03:09:16.999Z,21.06
2022-07-26T03:10:16.984Z,21.14
2022-07-26T03:11:16.978Z,21.20
2022-07-26T03:12:17.099Z,21.05
2022-07-26T03:13:16.952Z,21.06
2022-07-26T03:14:17.588Z,21.03
2022-07-26T03:15:16.931Z,21.03
2022-07-26T03:16:21.847Z,21.18
2022-07-26T03:17:17.924Z,21.11
2022-07-26T03:18:16.900Z,21.15
2022-07-26T03:19:16.976Z,21.06
2022-07-26T03:20:16.883Z,21.03
2022-07-26T03:21:16.872Z,21.11
2022-07-26T03:22:16.932Z,21.18
2022-07-26T03:23:16.868Z,21.09
2022-07-26T03:24:17.561Z,21.07
2022-07-26T03:25:16.846Z,21.11
2022-07-26T03:26:16.810Z,21.06
2022-07-26T03:27:16.808Z,20.97
2022-07-26T03:28:19.482Z,21.03
2022-07-26T03:29:16.973Z,21.09
2022-07-26T03:30:16.765Z,21.02
2022-07-26T03:31:17.824Z,21.05
2022-07-26T03:32:16.745Z,20.95
2022-07-26T03:33:16.726Z,20.97
2022-07-26T03:34:16.720Z,20.93
2022-07-26T03:35:16.709Z,20.93
2022-07-26T03:36:16.713Z,20.93
2022-07-26T03:37:16.684Z,20.90
2022-07-26T03:38:16.676Z,20.88
2022-07-26T03:39:16.663Z,20.96
2022-07-26T03:40:16.931Z,20.97
2022-07-26T03:41:16.677Z,20.93
2022-07-26T03:42:16.635Z,20.87
2022-07-26T03:43:18.984Z,20.81
2022-07-26T03:44:16.705Z,20.88
2022-07-26T03:45:16.595Z,20.82
2022-07-26T03:46:16.700Z,20.80
2022-07-26T03:47:16.588Z,20.81
2022-07-26T03:48:16.566Z,20.82
2022-07-26T03:49:17.420Z,20.78
2022-07-26T03:50:16.541Z,20.81
2022-07-26T03:51:16.527Z,20.80
2022-07-26T03:52:16.541Z,20.80
2022-07-26T03:53:16.506Z,20.81
2022-07-26T03:54:16.496Z,20.81
2022-07-26T03:55:16.484Z,20.82
2022-07-26T03:56:16.473Z,20.80
2022-07-26T03:57:16.634Z,20.75
2022-07-26T03:58:16.452Z,20.82
2022-07-26T03:59:16.441Z,20.74
2022-07-26T04:00:16.433Z,20.84
2022-07-26T04:01:16.504Z,20.84
2022-07-26T04:02:16.493Z,20.80
2022-07-26T04:03:17.107Z,20.80
2022-07-26T04:04:16.387Z,20.90
2022-07-26T04:05:16.370Z,20.84
2022-07-26T04:06:17.363Z,20.93
2022-07-26T04:07:16.423Z,20.85
2022-07-26T04:08:16.341Z,20.90
2022-07-26T04:09:16.325Z,20.85
2022-07-26T04:10:16.319Z,20.90
2022-07-26T04:11:16.306Z,20.88
2022-07-26T04:12:16.314Z,20.90
2022-07-26T04:13:16.282Z,20.93
2022-07-26T04:14:16.506Z,20.97
2022-07-26T04:15:16.264Z,20.96
2022-07-26T04:16:16.267Z,20.96
2022-07-26T04:17:16.300Z,20.96
2022-07-26T04:18:16.228Z,20.99
2022-07-26T04:19:16.217Z,21.00
2022-07-26T04:20:16.257Z,20.97
2022-07-26T04:21:16.200Z,20.93
2022-07-26T04:22:16.267Z,21.02
2022-07-26T04:23:16.171Z,20.92
2022-07-26T04:24:16.160Z,20.93
2022-07-26T04:25:16.158Z,20.97
2022-07-26T04:26:16.141Z,20.92
2022-07-26T04:27:16.151Z,20.93
2022-07-26T04:28:16.114Z,20.95
2022-07-26T04:29:16.106Z,20.95
2022-07-26T04:30:16.093Z,21.05
2022-07-26T04:31:16.170Z,20.95
2022-07-26T04:32:16.093Z,21.02
2022-07-26T04:33:16.070Z,21.02
2022-07-26T04:34:16.051Z,21.00
2022-07-26T04:35:16.044Z,20.95
2022-07-26T04:36:16.035Z,21.07
2022-07-26T04:37:16.162Z,21.09
2022-07-26T04:38:16.009Z,21.03
2022-07-26T04:39:16.577Z,21.02
2022-07-26T04:40:15.986Z,21.02
2022-07-26T04:41:15.967Z,21.02
2022-07-26T04:42:16.009Z,21.14
2022-07-26T04:43:16.269Z,21.17
2022-07-26T04:44:16.015Z,21.30
2022-07-26T04:45:15.928Z,21.32
2022-07-26T04:46:16.067Z,21.33
2022-07-26T04:47:15.923Z,21.25
2022-07-26T04:48:16.622Z,21.30
2022-07-26T04:49:15.944Z,21.32
2022-07-26T04:50:16.626Z,21.33
2022-07-26T04:51:15.863Z,21.40
2022-07-26T04:52:15.880Z,21.42
2022-07-26T04:53:15.860Z,21.40
2022-07-26T04:54:15.831Z,21.46
2022-07-26T04:55:15.830Z,21.51
2022-07-26T04:56:15.838Z,21.45
2022-07-26T04:57:15.819Z,21.48
2022-07-26T04:58:15.791Z,21.64
2022-07-26T04:59:19.839Z,21.52
2022-07-26T05:00:24.628Z,21.72
2022-07-26T05:01:16.830Z,21.64
2022-07-26T05:02:15.880Z,21.64
2022-07-26T05:03:15.844Z,21.67
2022-07-26T05:04:15.724Z,21.70
2022-07-26T05:05:15.713Z,21.75
2022-07-26T05:06:15.701Z,21.62
2022-07-26T05:07:15.692Z,21.66
2022-07-26T05:08:15.710Z,21.67
2022-07-26T05:09:15.665Z,21.54
2022-07-26T05:10:15.656Z,21.72
2022-07-26T05:11:15.791Z,21.73
2022-07-26T05:12:15.673Z,21.79
2022-07-26T05:13:15.621Z,21.69
2022-07-26T05:14:15.611Z,21.69
2022-07-26T05:15:15.605Z,21.79
2022-07-26T05:16:15.590Z,21.75
2022-07-26T05:17:17.829Z,21.72
2022-07-26T05:18:15.587Z,21.67
2022-07-26T05:19:15.558Z,21.70
2022-07-26T05:20:15.548Z,21.69
2022-07-26T05:21:15.537Z,21.67
2022-07-26T05:22:15.608Z,21.64
2022-07-26T05:23:15.533Z,21.67
2022-07-26T05:24:15.791Z,21.72
2022-07-26T05:25:15.509Z,21.69
2022-07-26T05:26:15.484Z,21.72
2022-07-26T05:27:15.487Z,21.80
2022-07-26T05:28:15.482Z,21.82
2022-07-26T05:29:15.493Z,21.79
2022-07-26T05:30:15.443Z,21.72
2022-07-26T05:31:15.502Z,21.61
2022-07-26T05:32:15.415Z,21.69
2022-07-26T05:33:16.484Z,21.66
2022-07-26T05:34:15.395Z,21.69
2022-07-26T05:35:15.388Z,21.61
2022-07-26T05:36:15.374Z,21.67
2022-07-26T05:37:15.360Z,21.79
2022-07-26T05:38:15.366Z,21.72
2022-07-26T05:39:16.210Z,21.62
2022-07-26T05:40:15.334Z,21.72
2022-07-26T05:41:15.365Z,21.57
2022-07-26T05:42:15.303Z,21.58
2022-07-26T05:43:15.312Z,21.61
2022-07-26T05:44:15.297Z,21.57
2022-07-26T05:45:15.371Z,21.58
2022-07-26T05:46:15.313Z,21.62
2022-07-26T05:47:15.251Z,21.62
2022-07-26T05:48:15.252Z,21.70
2022-07-26T05:49:15.308Z,21.67
2022-07-26T05:50:15.220Z,21.76
2022-07-26T05:51:15.208Z,21.79
2022-07-26T05:52:15.196Z,21.77
2022-07-26T05:53:15.198Z,21.80
2022-07-26T05:54:15.178Z,21.77
2022-07-26T05:55:15.164Z,21.77
2022-07-26T05:56:15.416Z,21.88
2022-07-26T05:57:15.144Z,21.91
2022-07-26T05:58:15.148Z,21.88
2022-07-26T05:59:15.120Z,21.96
2022-07-26T06:00:15.200Z,21.91
2022-07-26T06:01:15.108Z,22.04
2022-07-26T06:02:15.104Z,22.11
2022-07-26T06:03:15.097Z,22.30
2022-07-26T06:04:15.149Z,22.22
2022-07-26T06:05:15.057Z,22.36
2022-07-26T06:06:15.045Z,22.44
2022-07-26T06:07:15.040Z,22.44
2022-07-26T06:08:15.041Z,22.59
2022-07-26T06:09:15.016Z,22.65
2022-07-26T06:10:15.003Z,22.75
2022-07-26T06:11:14.995Z,22.88
2022-07-26T06:12:14.977Z,22.88
2022-07-26T06:13:15.655Z,22.91
2022-07-26T06:14:15.307Z,22.91
2022-07-26T06:15:16.019Z,23.03
2022-07-26T06:16:14.932Z,23.10
2022-07-26T06:17:14.951Z,23.12
2022-07-26T06:18:14.932Z,23.32
2022-07-26T06:19:14.907Z,23.46
2022-07-26T06:20:14.892Z,23.43
2022-07-26T06:21:14.872Z,23.54
2022-07-26T06:22:14.868Z,23.55
2022-07-26T06:23:14.873Z,23.58
2022-07-26T06:24:14.847Z,23.56
2022-07-26T06:25:14.834Z,23.58
2022-07-26T06:26:14.821Z,23.68
2022-07-26T06:27:14.810Z,23.55
2022-07-26T06:28:14.844Z,23.65
2022-07-26T06:29:14.789Z,23.51
2022-07-26T06:30:14.820Z,23.54
2022-07-26T06:31:14.837Z,23.62
2022-07-26T06:32:14.893Z,23.66
2022-07-26T06:33:14.760Z,23.69
2022-07-26T06:34:14.756Z,23.91
2022-07-26T06:35:14.722Z,23.93
2022-07-26T06:36:15.041Z,24.01
2022-07-26T06:37:14.704Z,24.26
2022-07-26T06:38:14.707Z,24.38
2022-07-26T06:39:14.678Z,24.33
2022-07-26T06:40:14.674Z,24.45
2022-07-26T06:41:14.658Z,24.70
2022-07-26T06:42:14.646Z,24.98
2022-07-26T06:43:14.670Z,25.13
2022-07-26T06:44:14.624Z,25.23
2022-07-26T06:45:14.615Z,25.25
2022-07-26T06:46:14.765Z,25.28
2022-07-26T06:47:14.952Z,25.38
2022-07-26T06:48:14.709Z,25.62
2022-07-26T06:49:15.480Z,25.54
2022-07-26T06:50:14.561Z,25.77
2022-07-26T06:51:14.678Z,25.93
2022-07-26T06:52:14.573Z,26.16
2022-07-26T06:53:14.587Z,26.33
2022-07-26T06:54:14.514Z,26.65
2022-07-26T06:55:14.505Z,26.52
2022-07-26T06:56:14.493Z,26.31
2022-07-26T06:57:14.480Z,26.41
2022-07-26T06:58:14.495Z,26.59
2022-07-26T06:59:14.466Z,26.88
2022-07-26T07:00:14.453Z,27.03
2022-07-26T07:01:57.032Z,27.39
2022-07-26T07:02:15.467Z,28.01
2022-07-26T07:03:14.416Z,28.63
2022-07-26T07:04:14.424Z,28.86
2022-07-26T07:05:14.486Z,28.76
2022-07-26T07:06:14.385Z,28.84
2022-07-26T07:07:14.376Z,28.22
2022-07-26T07:08:14.658Z,28.00
2022-07-26T07:09:14.371Z,27.93
2022-07-26T07:10:14.434Z,28.44
2022-07-26T07:11:14.376Z,28.94
2022-07-26T07:12:14.341Z,28.86
2022-07-26T07:13:14.310Z,28.51
2022-07-26T07:14:14.299Z,28.66
2022-07-26T07:15:14.287Z,28.81
2022-07-26T07:16:14.362Z,28.82
2022-07-26T07:17:19.848Z,28.78
2022-07-26T07:18:15.270Z,29.19
2022-07-26T07:19:14.363Z,29.16
2022-07-26T07:20:14.233Z,28.48
2022-07-26T07:21:14.222Z,28.12
2022-07-26T07:22:14.209Z,27.74
2022-07-26T07:23:14.247Z,27.68
2022-07-26T07:24:14.192Z,27.80
2022-07-26T07:25:14.780Z,27.47
2022-07-26T07:26:14.186Z,27.39
2022-07-26T07:27:14.186Z,27.36
2022-07-26T07:28:14.149Z,27.48
2022-07-26T07:29:14.157Z,28.39
2022-07-26T07:30:14.122Z,29.72
2022-07-26T07:31:14.145Z,30.65
2022-07-26T07:32:18.297Z,31.34
2022-07-26T07:33:22.077Z,32.03
2022-07-26T07:34:15.079Z,32.75
2022-07-26T07:35:14.072Z,32.71
2022-07-26T07:36:14.055Z,33.11
2022-07-26T07:37:14.056Z,32.85
2022-07-26T07:38:14.418Z,31.94
2022-07-26T07:39:17.474Z,31.06
2022-07-26T07:40:14.020Z,30.51
2022-07-26T07:41:14.018Z,30.12
2022-07-26T07:42:14.011Z,30.09
2022-07-26T07:43:14.013Z,30.44
2022-07-26T07:44:14.431Z,30.31
2022-07-26T07:45:13.963Z,29.72
2022-07-26T07:46:14.078Z,30.37
2022-07-26T07:47:13.983Z,31.43
2022-07-26T07:48:13.950Z,32.52
2022-07-26T07:49:14.113Z,32.37
2022-07-26T07:50:13.910Z,32.55
2022-07-26T07:51:13.910Z,33.05
2022-07-26T07:52:13.892Z,33.79
2022-07-26T07:53:13.894Z,34.70
2022-07-26T07:54:13.868Z,34.71
2022-07-26T07:55:39.963Z,34.51
2022-07-26T07:56:14.847Z,35.12
2022-07-26T07:57:13.878Z,35.39
2022-07-26T07:58:13.862Z,35.92
2022-07-26T07:59:14.934Z,36.42
2022-07-26T08:00:27.156Z,35.44
2022-07-26T08:01:14.834Z,33.99
2022-07-26T08:02:13.784Z,33.73
2022-07-26T08:03:13.770Z,33.61
2022-07-26T08:04:13.824Z,32.16
2022-07-26T08:05:15.187Z,32.71
2022-07-26T08:06:13.741Z,33.52
2022-07-26T08:07:13.728Z,34.73
2022-07-26T08:08:13.728Z,34.21
2022-07-26T08:09:13.940Z,33.79
2022-07-26T08:10:13.915Z,33.59
2022-07-26T08:11:13.686Z,34.43
2022-07-26T08:12:13.674Z,34.93
2022-07-26T08:13:13.665Z,35.26
2022-07-26T08:14:13.837Z,33.98
2022-07-26T08:15:13.671Z,34.29
2022-07-26T08:16:13.836Z,35.24
2022-07-26T08:17:13.622Z,35.30
2022-07-26T08:18:14.138Z,34.52
2022-07-26T08:19:14.432Z,34.38
2022-07-26T08:20:15.828Z,34.21
2022-07-26T08:21:13.587Z,33.81
2022-07-26T08:22:13.587Z,34.42
2022-07-26T08:23:13.560Z,35.02
2022-07-26T08:24:13.553Z,35.46
2022-07-26T08:25:13.555Z,35.64
2022-07-26T08:26:13.527Z,35.52
2022-07-26T08:27:14.241Z,34.64
2022-07-26T08:28:37.630Z,34.27
2022-07-26T08:29:14.740Z,33.59
2022-07-26T08:30:13.500Z,32.82
2022-07-26T08:31:13.688Z,31.92
2022-07-26T08:32:13.467Z,31.07
2022-07-26T08:33:13.470Z,30.18
2022-07-26T08:34:13.444Z,29.50
2022-07-26T08:35:19.880Z,28.81
2022-07-26T08:36:14.424Z,28.01
2022-07-26T08:37:18.005Z,27.68
2022-07-26T08:38:13.404Z,27.37
2022-07-26T08:39:13.409Z,27.33
2022-07-26T08:40:13.393Z,27.36
2022-07-26T08:41:13.368Z,27.27
2022-07-26T08:42:13.467Z,27.26
2022-07-26T08:43:13.354Z,27.21
2022-07-26T08:44:13.343Z,27.11
2022-07-26T08:45:13.352Z,27.39
2022-07-26T08:46:14.209Z,27.89
2022-07-26T08:47:13.321Z,27.98
2022-07-26T08:48:18.158Z,27.93
2022-07-26T08:49:14.685Z,27.73
2022-07-26T08:50:13.285Z,27.45
2022-07-26T08:51:13.261Z,27.20
2022-07-26T08:52:13.251Z,27.00
2022-07-26T08:53:13.395Z,26.92
2022-07-26T08:54:13.232Z,26.81
2022-07-26T08:55:13.231Z,26.88
2022-07-26T08:56:13.212Z,26.97
2022-07-26T08:57:13.196Z,27.73
2022-07-26T08:58:14.503Z,28.51
2022-07-26T08:59:19.088Z,28.98
2022-07-26T09:00:14.240Z,29.16
2022-07-26T09:01:13.578Z,28.88
2022-07-26T09:02:13.141Z,28.70
2022-07-26T09:03:13.893Z,28.67
2022-07-26T09:04:13.763Z,29.50
2022-07-26T09:05:13.176Z,29.44
2022-07-26T09:06:13.103Z,29.17
2022-07-26T09:07:13.087Z,28.79
2022-07-26T09:08:13.077Z,28.64
2022-07-26T09:09:13.068Z,28.67
2022-07-26T09:10:13.116Z,28.81
2022-07-26T09:11:13.045Z,29.29
2022-07-26T09:12:13.035Z,29.75
2022-07-26T09:13:13.026Z,30.09
2022-07-26T09:14:13.010Z,30.92
2022-07-26T09:15:13.028Z,30.72
2022-07-26T09:16:13.207Z,30.25
2022-07-26T09:17:12.987Z,29.71
2022-07-26T09:18:12.975Z,29.08
2022-07-26T09:19:12.968Z,28.62
2022-07-26T09:20:13.132Z,28.12
2022-07-26T09:21:12.941Z,27.67
2022-07-26T09:22:12.926Z,27.54
2022-07-26T09:23:12.931Z,27.36
2022-07-26T09:24:12.915Z,27.33
2022-07-26T09:25:12.923Z,28.25
2022-07-26T09:26:12.892Z,30.88
2022-07-26T09:27:12.874Z,33.01
2022-07-26T09:28:12.863Z,34.62
2022-07-26T09:29:13.599Z,35.89
2022-07-26T09:30:12.838Z,36.99
2022-07-26T09:31:12.980Z,35.51
2022-07-26T09:32:12.820Z,34.50
2022-07-26T09:33:12.904Z,33.40
2022-07-26T09:34:13.311Z,32.48
2022-07-26T09:35:30.076Z,31.70
2022-07-26T09:36:13.771Z,30.97
2022-07-26T09:37:12.834Z,30.43
2022-07-26T09:38:12.753Z,29.84
2022-07-26T09:39:12.762Z,29.10
2022-07-26T09:40:12.736Z,28.67
2022-07-26T09:41:12.733Z,28.32
2022-07-26T09:42:28.446Z,28.10
2022-07-26T09:43:13.708Z,27.98
2022-07-26T09:44:13.227Z,27.98
2022-07-26T09:45:12.682Z,28.02
2022-07-26T09:46:12.713Z,27.85
2022-07-26T09:47:12.666Z,27.80
2022-07-26T09:48:12.785Z,27.59
2022-07-26T09:49:12.753Z,27.63
2022-07-26T09:50:12.833Z,27.47
2022-07-26T09:51:12.619Z,27.80
2022-07-26T09:52:12.650Z,28.85
2022-07-26T09:53:12.632Z,30.10
2022-07-26T09:54:13.157Z,32.30
2022-07-26T09:55:12.593Z,34.50
2022-07-26T09:56:12.579Z,34.67
2022-07-26T09:57:13.128Z,34.71
2022-07-26T09:58:12.554Z,35.97
2022-07-26T09:59:12.556Z,37.64
2022-07-26T10:00:12.522Z,39.02
2022-07-26T10:01:12.636Z,40.18
2022-07-26T10:02:12.507Z,39.99
2022-07-26T10:03:12.569Z,38.50
2022-07-26T10:04:12.886Z,38.46
2022-07-26T10:05:12.478Z,39.48
2022-07-26T10:06:12.479Z,40.06
2022-07-26T10:07:12.468Z,40.72
2022-07-26T10:08:12.445Z,40.81
2022-07-26T10:09:12.440Z,39.26
2022-07-26T10:10:12.421Z,38.84
2022-07-26T10:11:12.429Z,38.95
2022-07-26T10:12:12.424Z,39.30
2022-07-26T10:13:12.395Z,39.68
2022-07-26T10:14:12.777Z,39.56
2022-07-26T10:15:12.378Z,38.19
2022-07-26T10:16:12.403Z,36.93
2022-07-26T10:17:13.370Z,35.92
2022-07-26T10:18:16.738Z,35.26
2022-07-26T10:19:13.350Z,34.51
2022-07-26T10:20:17.358Z,33.53
2022-07-26T10:21:13.316Z,32.80
2022-07-26T10:22:12.324Z,32.27
2022-07-26T10:23:12.295Z,31.71
2022-07-26T10:24:13.172Z,31.42
2022-07-26T10:25:12.274Z,31.02
2022-07-26T10:26:12.268Z,30.69
2022-07-26T10:27:12.275Z,30.09
2022-07-26T10:28:12.290Z,29.90
2022-07-26T10:29:12.236Z,29.82
2022-07-26T10:30:12.270Z,29.56
2022-07-26T10:31:12.258Z,29.47
2022-07-26T10:32:12.218Z,29.27
2022-07-26T10:33:12.194Z,29.14
2022-07-26T10:34:12.741Z,29.22
2022-07-26T10:35:12.412Z,29.59
2022-07-26T10:36:12.159Z,30.35
2022-07-26T10:37:12.170Z,31.89
2022-07-26T10:38:12.135Z,32.12
2022-07-26T10:39:12.331Z,32.07
2022-07-26T10:40:12.150Z,31.87
2022-07-26T10:41:12.109Z,31.51
2022-07-26T10:42:12.113Z,31.15
2022-07-26T10:43:39.052Z,30.87
2022-07-26T10:44:13.370Z,30.69
2022-07-26T10:45:12.071Z,30.51
2022-07-26T10:46:12.143Z,30.25
2022-07-26T10:47:12.086Z,29.97
2022-07-26T10:48:12.102Z,29.78
2022-07-26T10:49:12.101Z,29.56
2022-07-26T10:50:12.010Z,29.50
2022-07-26T10:51:12.000Z,29.17
2022-07-26T10:52:12.102Z,28.89
2022-07-26T10:53:11.992Z,28.66
2022-07-26T10:54:12.780Z,28.41
2022-07-26T10:55:11.960Z,28.12
2022-07-26T10:56:13.754Z,27.90
2022-07-26T10:57:11.978Z,27.63
2022-07-26T10:58:11.939Z,27.39
2022-07-26T10:59:11.920Z,27.37
2022-07-26T11:00:11.904Z,27.35
2022-07-26T11:01:11.924Z,28.49
2022-07-26T11:02:11.889Z,30.66
2022-07-26T11:03:11.957Z,32.53
2022-07-26T11:04:12.255Z,33.95
2022-07-26T11:05:11.855Z,35.27
2022-07-26T11:06:11.845Z,36.59
2022-07-26T11:07:11.908Z,37.78
2022-07-26T11:08:11.841Z,38.86
2022-07-26T11:09:12.764Z,38.80
2022-07-26T11:10:11.803Z,38.49
2022-07-26T11:11:11.792Z,37.67
2022-07-26T11:12:11.975Z,36.74
2022-07-26T11:13:11.820Z,35.71
2022-07-26T11:14:12.223Z,35.05
2022-07-26T11:15:11.829Z,34.51
2022-07-26T11:16:11.817Z,34.10
2022-07-26T11:17:11.733Z,33.65
2022-07-26T11:18:11.720Z,33.32
2022-07-26T11:19:11.729Z,32.89
2022-07-26T11:20:11.706Z,32.43
2022-07-26T11:21:11.694Z,32.78
2022-07-26T11:22:11.681Z,34.42
2022-07-26T11:23:11.715Z,35.90
2022-07-26T11:24:12.015Z,36.96
2022-07-26T11:25:11.651Z,37.74
2022-07-26T11:26:12.298Z,38.50
2022-07-26T11:27:11.630Z,38.73
2022-07-26T11:28:11.739Z,38.83
2022-07-26T11:29:12.766Z,38.67
2022-07-26T11:30:12.596Z,37.32
2022-07-26T11:31:11.626Z,36.58
2022-07-26T11:32:17.740Z,36.31
2022-07-26T11:33:12.587Z,36.33
2022-07-26T11:34:11.993Z,36.67
2022-07-26T11:35:11.554Z,36.84
2022-07-26T11:36:11.543Z,36.33
2022-07-26T11:37:11.546Z,35.34
2022-07-26T11:38:12.551Z,34.67
2022-07-26T11:39:11.532Z,34.10
2022-07-26T11:40:11.508Z,33.64
2022-07-26T11:41:11.496Z,33.08
2022-07-26T11:42:11.505Z,32.75
2022-07-26T11:43:11.499Z,32.53
2022-07-26T11:44:11.783Z,32.26
2022-07-26T11:45:11.782Z,32.14
2022-07-26T11:46:11.502Z,31.89
2022-07-26T11:47:11.439Z,31.73
2022-07-26T11:48:11.424Z,31.55
2022-07-26T11:49:12.467Z,31.40
2022-07-26T11:50:16.894Z,31.15
2022-07-26T11:51:12.406Z,31.03
2022-07-26T11:52:11.383Z,30.06
2022-07-26T11:53:11.404Z,29.63
2022-07-26T11:54:11.752Z,29.39
2022-07-26T11:55:11.360Z,29.04
2022-07-26T11:56:11.342Z,28.81
2022-07-26T11:57:11.331Z,28.64
2022-07-26T11:58:11.321Z,28.20
2022-07-26T11:59:11.311Z,28.01
2022-07-26T12:00:11.312Z,27.90
2022-07-26T12:01:11.287Z,27.75
2022-07-26T12:02:11.279Z,27.60
2022-07-26T12:03:11.283Z,27.52
2022-07-26T12:04:11.690Z,27.39
2022-07-26T12:05:11.496Z,27.11
2022-07-26T12:06:11.676Z,26.95
2022-07-26T12:07:11.230Z,26.83
2022-07-26T12:08:11.277Z,26.51
2022-07-26T12:09:11.214Z,26.29
2022-07-26T12:10:11.196Z,26.10
2022-07-26T12:11:11.183Z,26.02
2022-07-26T12:12:11.173Z,25.98
2022-07-26T12:13:11.173Z,26.02
2022-07-26T12:14:15.069Z,26.15
2022-07-26T12:15:12.136Z,26.16
2022-07-26T12:16:11.188Z,26.15
2022-07-26T12:17:11.220Z,26.15
2022-07-26T12:18:11.108Z,26.13
2022-07-26T12:19:11.374Z,26.16
2022-07-26T12:20:11.097Z,26.26
2022-07-26T12:21:11.078Z,26.18
2022-07-26T12:22:12.645Z,26.28
2022-07-26T12:23:11.126Z,26.36
2022-07-26T12:24:11.681Z,26.43
2022-07-26T12:25:11.026Z,26.38
2022-07-26T12:26:11.015Z,26.15
2022-07-26T12:27:11.011Z,26.05
2022-07-26T12:28:11.000Z,25.84
2022-07-26T12:29:10.983Z,25.78
2022-07-26T12:30:10.988Z,25.59
2022-07-26T12:31:11.017Z,25.43
2022-07-26T12:32:12.665Z,25.14
2022-07-26T12:33:10.939Z,24.99
2022-07-26T12:34:11.399Z,24.85
2022-07-26T12:35:10.932Z,24.55
2022-07-26T12:36:10.906Z,24.32
2022-07-26T12:37:10.896Z,24.08
2022-07-26T12:38:10.893Z,23.86
2022-07-26T12:39:10.895Z,23.65
2022-07-26T12:40:11.363Z,23.50
2022-07-26T12:41:13.825Z,23.56
2022-07-26T12:42:10.847Z,23.40
2022-07-26T12:43:10.831Z,23.21
2022-07-26T12:44:11.154Z,23.10
2022-07-26T12:45:10.825Z,22.98
2022-07-26T12:46:10.866Z,22.96
2022-07-26T12:47:10.787Z,22.84
2022-07-26T12:48:10.782Z,22.63
2022-07-26T12:49:10.880Z,22.75
2022-07-26T12:50:10.759Z,22.70
2022-07-26T12:51:10.758Z,22.62
2022-07-26T12:52:10.735Z,22.69